Time;durP1;ratioP1;P1;durP2;ratioP2;P2;SDS_P1;SDS_P2;PMS_P1;PMS_P2;Temp;Humidity;BMP_temperature;BMP_pressure;BME280_temperature;BME280_humidity;BME280_pressure;Samples;Min_cycle;Max_cycle;Signal;HPM_P1;HPM_P2
2023/02/22 00:01:36;;;;;;;3.50;1.20;;;;;;;-0.75;66.63;101838.69;4978318;28;20442;-69
2023/02/22 00:04:05;;;;;;;3.88;1.60;;;;;;;-0.79;66.40;101837.66;4983831;28;20094;-69
2023/02/22 00:06:32;;;;;;;2.25;0.90;;;;;;;-0.77;66.46;101843.75;4978678;28;20047;-69
2023/02/22 00:09:01;;;;;;;3.30;1.20;;;;;;;-0.76;66.58;101847.19;4980192;28;20047;-69
2023/02/22 00:11:30;;;;;;;2.35;1.13;;;;;;;-0.77;66.55;101853.13;4975002;28;20639;-69
2023/02/22 00:13:57;;;;;;;2.53;1.30;;;;;;;-0.86;66.75;101840.75;4980798;28;20117;-69
2023/02/22 00:16:26;;;;;;;2.95;1.23;;;;;;;-0.84;66.17;101849.41;4982649;28;20060;-69
2023/02/22 00:18:53;;;;;;;2.83;1.65;;;;;;;-0.81;66.93;101854.66;4978917;28;20050;-69
2023/02/22 00:21:21;;;;;;;3.80;1.67;;;;;;;-0.79;66.40;101858.19;4981892;28;20062;-69
2023/02/22 00:23:48;;;;;;;1.77;1.25;;;;;;;-0.79;66.28;101860.75;4978226;28;20055;-69
2023/02/22 00:26:18;;;;;;;2.88;0.77;;;;;;;-0.81;66.97;101859.81;4980585;28;20051;-69
2023/02/22 00:28:47;;;;;;;2.97;1.13;;;;;;;-0.83;66.01;101858.84;4979451;28;20046;-69
2023/02/22 00:31:14;;;;;;;2.13;0.95;;;;;;;-0.82;66.52;101867.44;4982230;28;20055;-69
2023/02/22 00:33:41;;;;;;;2.55;1.17;;;;;;;-0.83;66.33;101868.22;4976353;28;20051;-68
2023/02/22 00:36:09;;;;;;;1.88;1.08;;;;;;;-0.83;66.34;101869.09;4983249;28;20060;-69
2023/02/22 00:38:37;;;;;;;2.95;1.58;;;;;;;-0.83;66.07;101868.22;4984705;28;20046;-69
2023/02/22 00:41:04;;;;;;;3.05;1.23;;;;;;;-0.83;65.91;101869.09;4982064;28;20051;-69
2023/02/22 00:43:32;;;;;;;1.83;1.02;;;;;;;-0.84;66.58;101869.94;4982628;28;20046;-69
2023/02/22 00:45:59;;;;;;;1.98;0.75;;;;;;;-0.83;66.47;101869.09;4984356;28;20054;-69
2023/02/22 00:48:27;;;;;;;2.45;1.10;;;;;;;-0.84;65.95;101869.94;4982148;28;20042;-69
2023/02/22 00:50:55;;;;;;;1.80;0.95;;;;;;;-0.91;65.92;101860.22;4987225;28;20046;-69
2023/02/22 00:53:22;;;;;;;2.10;1.13;;;;;;;-0.91;66.27;101858.53;4984473;28;20050;-69
2023/02/22 00:55:50;;;;;;;2.10;0.82;;;;;;;-0.86;65.77;101870.66;4984731;28;20053;-69
2023/02/22 00:58:17;;;;;;;3.03;1.27;;;;;;;-0.85;65.89;101874.97;4978142;28;20125;-69
2023/02/22 01:00:45;;;;;;;2.17;0.80;;;;;;;-0.88;66.00;101867.13;4981896;28;20047;-69
2023/02/22 01:03:15;;;;;;;2.50;0.85;;;;;;;-0.85;66.24;101872.41;4981795;28;20066;-69
2023/02/22 01:05:42;;;;;;;2.22;1.02;;;;;;;-0.88;66.01;101873.19;4981218;28;20046;-69
2023/02/22 01:08:12;;;;;;;1.55;0.80;;;;;;;-0.89;66.43;101876.53;4981912;28;20047;-69
2023/02/22 01:10:40;;;;;;;2.25;0.95;;;;;;;-0.87;66.34;101884.31;4982121;28;20059;-69
2023/02/22 01:13:10;;;;;;;1.58;0.75;;;;;;;-0.89;66.29;101885.91;4981643;28;20046;-69
2023/02/22 01:15:39;;;;;;;1.13;0.65;;;;;;;-0.89;66.22;101886.78;4984218;28;20053;-68
2023/02/22 01:18:08;;;;;;;3.80;0.93;;;;;;;-0.90;66.25;101890.19;4979672;28;20125;-69
2023/02/22 01:20:36;;;;;;;3.40;1.33;;;;;;;-0.89;65.68;101902.19;4980921;28;20055;-69
2023/02/22 01:23:06;;;;;;;2.22;1.55;;;;;;;-0.91;65.71;101899.56;4979235;28;20047;-68
2023/02/22 01:25:33;;;;;;;2.10;0.60;;;;;;;-0.94;66.16;101899.41;4979836;28;20486;-69
2023/02/22 01:28:02;;;;;;;1.98;0.82;;;;;;;-0.91;66.13;101908.94;4981133;28;20056;-69
2023/02/22 01:30:32;;;;;;;1.27;0.90;;;;;;;-0.93;66.11;101906.28;4983082;28;20065;-69
2023/02/22 01:33:00;;;;;;;1.88;0.93;;;;;;;-0.93;65.87;101911.44;4982888;28;20042;-69
2023/02/22 01:35:30;;;;;;;1.60;0.80;;;;;;;-0.95;66.19;101907.03;4982612;28;20054;-69
2023/02/22 01:37:58;;;;;;;1.58;1.00;;;;;;;-0.98;66.17;101910.31;4979877;28;20050;-69
2023/02/22 01:40:28;;;;;;;1.83;0.93;;;;;;;-0.96;65.51;101912.97;4978399;28;20054;-69
2023/02/22 01:42:57;;;;;;;1.30;0.60;;;;;;;-0.96;65.78;101910.41;4982197;28;20057;-68
2023/02/22 01:45:48;;;;;;;2.63;1.08;;;;;;;-0.96;65.94;101910.41;4980904;28;20062;-69
2023/02/22 01:48:20;;;;;;;3.53;1.10;;;;;;;-0.97;66.17;101918.91;4984938;28;20694;-69
2023/02/22 01:50:54;;;;;;;1.98;0.80;;;;;;;-0.96;65.90;101918.09;4981375;28;20057;-69
2023/02/22 01:53:25;;;;;;;2.55;1.17;;;;;;;-0.97;66.12;101916.34;4981418;28;20050;-69
2023/02/22 01:55:53;;;;;;;2.25;0.95;;;;;;;-1.00;65.90;101913.63;4980140;28;20049;-69
2023/02/22 01:58:22;;;;;;;2.28;0.80;;;;;;;-0.98;65.69;101927.41;4985242;28;20517;-69
2023/02/22 02:00:49;;;;;;;2.05;0.88;;;;;;;-0.99;65.82;101925.66;4981721;28;20091;-69
2023/02/22 02:03:22;;;;;;;1.60;1.08;;;;;;;-0.98;66.32;101935.09;4982332;28;20046;-69
2023/02/22 02:05:54;;;;;;;2.22;0.80;;;;;;;-0.98;65.96;101929.97;4981157;28;20050;-69
2023/02/22 02:08:29;;;;;;;1.52;0.82;;;;;;;-0.98;65.73;101932.53;4981569;28;20042;-69
2023/02/22 02:10:57;;;;;;;1.63;1.13;;;;;;;-0.98;65.53;101935.09;4983946;28;20054;-68
2023/02/22 02:13:26;;;;;;;2.17;1.30;;;;;;;-0.99;65.52;101925.66;4983230;28;20047;-69
2023/02/22 02:15:54;;;;;;;2.95;1.10;;;;;;;-1.00;66.10;101929.88;4982057;28;20384;-69
2023/02/22 02:18:23;;;;;;;2.75;1.45;;;;;;;-0.99;65.87;101935.91;4981653;28;20051;-68
2023/02/22 02:21:16;;;;;;;3.65;1.13;;;;;;;-1.00;66.26;101929.00;4981828;28;20085;-68
2023/02/22 02:24:09;;;;;;;2.65;0.95;;;;;;;-1.02;65.85;101931.53;4979872;28;20622;-69
2023/02/22 02:27:00;;;;;;;1.92;1.10;;;;;;;-1.02;65.95;101930.66;4983958;28;20061;-69
2023/02/22 02:30:20;;;;;;;2.00;0.68;;;;;;;-1.02;66.33;101936.66;4983860;28;20476;-69
2023/02/22 02:32:58;;;;;;;2.75;0.98;;;;;;;-1.02;65.92;101941.78;4983315;28;20506;-69
2023/02/22 02:35:38;;;;;;;2.47;1.30;;;;;;;-1.06;65.74;101933.84;4982471;28;20046;-69
2023/02/22 02:38:14;;;;;;;2.72;1.30;;;;;;;-1.02;66.33;101943.47;4978362;28;20511;-69
2023/02/22 02:40:48;;;;;;;2.25;1.00;;;;;;;-1.03;66.17;101934.88;4981450;28;20067;-69
2023/02/22 02:43:21;;;;;;;2.75;1.38;;;;;;;-1.03;66.60;101929.75;4985015;28;20159;-69
2023/02/22 02:45:55;;;;;;;2.40;0.93;;;;;;;-1.03;66.38;101934.88;4977732;28;20042;-69
2023/02/22 02:48:27;;;;;;;2.92;0.82;;;;;;;-1.04;65.81;101928.00;4985074;28;20050;-68
2023/02/22 02:50:58;;;;;;;3.00;1.13;;;;;;;-1.03;65.84;101934.88;4981808;28;20057;-69
2023/02/22 02:53:32;;;;;;;2.75;1.27;;;;;;;-1.03;66.16;101941.69;4983884;28;20050;-68
2023/02/22 02:55:59;;;;;;;2.13;1.15;;;;;;;-1.03;65.78;101941.69;4979772;28;20058;-69
2023/02/22 02:58:27;;;;;;;2.97;0.90;;;;;;;-1.04;66.23;101945.06;4980650;28;20042;-68
2023/02/22 03:00:57;;;;;;;3.50;1.58;;;;;;;-1.04;66.32;101942.50;4981682;28;20051;-69
2023/02/22 03:03:54;;;;;;;3.95;1.17;;;;;;;-1.05;66.08;101949.34;4980025;28;20503;-69
2023/02/22 03:06:37;;;;;;;1.60;1.30;;;;;;;-1.05;66.12;101951.00;4982350;28;20058;-69
2023/02/22 03:09:12;;;;;;;2.67;0.80;;;;;;;-1.09;66.22;101952.53;4981068;28;20410;-68
2023/02/22 03:11:50;;;;;;;2.88;1.23;;;;;;;-1.05;65.88;101951.00;4983660;28;20108;-69
2023/02/22 03:14:27;;;;;;;3.15;1.13;;;;;;;-1.05;65.91;101953.56;4979705;28;20051;-69
2023/02/22 03:17:04;;;;;;;1.83;0.95;;;;;;;-1.06;65.65;101959.50;4981806;28;20050;-68
2023/02/22 03:19:37;;;;;;;2.40;1.05;;;;;;;-1.07;66.10;101961.19;4981478;28;20066;-69
2023/02/22 03:22:12;;;;;;;1.17;0.80;;;;;;;-1.07;66.45;101963.75;4978894;28;20051;-69
2023/02/22 03:24:54;;;;;;;3.17;1.30;;;;;;;-1.06;66.38;101962.06;4979032;28;20570;-69
2023/02/22 03:27:25;;;;;;;3.20;1.20;;;;;;;-1.06;66.19;101973.19;4982712;28;20450;-78
2023/02/22 03:29:55;;;;;;;1.80;1.10;;;;;;;-1.06;66.37;101978.31;4990096;28;20053;-77
2023/02/22 03:32:27;;;;;;;4.38;0.75;;;;;;;-1.06;66.16;101973.19;4984036;28;20422;-78
2023/02/22 03:35:01;;;;;;;2.78;1.33;;;;;;;-1.07;66.35;101985.97;4986103;28;20055;-70
2023/02/22 03:37:32;;;;;;;3.03;1.60;;;;;;;-1.07;66.31;101991.97;4978447;28;20137;-71
2023/02/22 03:40:07;;;;;;;2.60;1.30;;;;;;;-1.08;65.92;101991.88;4981505;28;20050;-71
2023/02/22 03:42:43;;;;;;;2.60;0.90;;;;;;;-1.08;66.43;101992.78;4980898;28;20046;-71
2023/02/22 03:45:14;;;;;;;2.60;1.20;;;;;;;-1.10;66.22;101989.25;4980960;28;20053;-71
2023/02/22 03:47:45;;;;;;;2.15;0.80;;;;;;;-1.22;66.20;101975.84;4984360;28;20049;-71
2023/02/22 03:50:18;;;;;;;5.18;1.10;;;;;;;-1.11;66.59;102002.88;4980157;28;20093;-71
2023/02/22 03:52:46;;;;;;;2.63;1.10;;;;;;;-1.11;66.39;101999.41;4980638;28;20068;-71
2023/02/22 03:55:16;;;;;;;1.90;0.90;;;;;;;-1.13;65.86;102000.25;4978700;28;20058;-71
2023/02/22 03:57:48;;;;;;;1.10;0.70;;;;;;;-1.10;66.20;101998.63;4976014;28;20043;-71
2023/02/22 04:00:20;;;;;;;3.30;1.77;;;;;;;-1.12;66.39;102008.81;4980197;28;20043;-71
2023/02/22 04:02:47;;;;;;;3.60;1.23;;;;;;;-1.11;65.95;102012.25;4983103;28;20702;-71
2023/02/22 04:05:16;;;;;;;2.17;1.00;;;;;;;-1.11;66.14;102009.69;4983351;28;20058;-70
2023/02/22 04:07:43;;;;;;;4.75;1.20;;;;;;;-1.14;66.36;102005.28;4984362;28;20057;-71
2023/02/22 04:10:11;;;;;;;2.08;1.13;;;;;;;-1.13;65.92;102020.75;4980687;28;20050;-71
2023/02/22 04:12:38;;;;;;;2.05;1.10;;;;;;;-1.14;65.98;102013.88;4982503;28;20066;-71
2023/02/22 04:15:07;;;;;;;3.50;1.20;;;;;;;-1.16;66.34;102010.34;4982666;28;20046;-71
2023/02/22 04:17:34;;;;;;;2.20;1.20;;;;;;;-1.16;66.42;102010.34;4986139;28;20061;-71
2023/02/22 04:20:01;;;;;;;3.38;1.25;;;;;;;-1.17;66.39;102018.84;4983636;28;20487;-71
2023/02/22 04:22:29;;;;;;;2.20;1.20;;;;;;;-1.18;66.12;102011.94;4983048;28;20445;-71
2023/02/22 04:24:56;;;;;;;3.20;0.98;;;;;;;-1.17;66.47;102021.41;4984545;28;20422;-70
2023/02/22 04:27:23;;;;;;;2.85;1.00;;;;;;;-1.18;66.30;102018.75;4984967;28;20053;-71
2023/02/22 04:29:50;;;;;;;2.03;1.10;;;;;;;-1.19;66.12;102020.44;4983405;28;20055;-71
2023/02/22 04:32:17;;;;;;;4.82;1.05;;;;;;;-1.20;66.32;102026.38;4983831;28;20505;-71
2023/02/22 04:34:44;;;;;;;4.82;1.63;;;;;;;-1.21;65.97;102016.06;4983076;28;20402;-71
2023/02/22 04:37:11;;;;;;;1.35;0.80;;;;;;;-1.20;66.14;102021.25;4986630;28;20050;-71
2023/02/22 04:39:40;;;;;;;2.75;1.23;;;;;;;-1.21;66.17;102016.94;4982899;28;20053;-71
2023/02/22 04:42:06;;;;;;;3.40;1.67;;;;;;;-1.22;65.94;102025.44;4984434;28;20042;-71
2023/02/22 04:44:33;;;;;;;3.58;1.65;;;;;;;-1.22;65.98;102030.56;4985051;28;20425;-70
2023/02/22 04:47:00;;;;;;;3.60;1.42;;;;;;;-1.22;66.15;102033.13;4983146;28;20058;-71
2023/02/22 04:49:27;;;;;;;2.22;1.13;;;;;;;-1.23;66.44;102041.59;4982872;28;20050;-71
2023/02/22 04:51:54;;;;;;;3.45;1.45;;;;;;;-1.22;66.38;102043.38;4980698;28;20058;-71
2023/02/22 04:54:21;;;;;;;2.42;1.30;;;;;;;-1.23;66.63;102044.16;4982976;28;20483;-71
2023/02/22 04:56:49;;;;;;;3.75;1.10;;;;;;;-1.23;66.70;102048.41;4982313;28;20100;-71
2023/02/22 04:59:16;;;;;;;3.40;1.23;;;;;;;-1.24;66.45;102050.09;4982592;28;20057;-71
2023/02/22 05:01:43;;;;;;;2.20;1.10;;;;;;;-1.23;66.23;102050.97;4983770;28;20043;-71
2023/02/22 05:04:09;;;;;;;5.00;1.13;;;;;;;-1.23;66.56;102059.53;4983536;28;20050;-71
2023/02/22 05:06:36;;;;;;;4.10;1.40;;;;;;;-1.23;66.22;102058.66;4980190;28;20053;-71
2023/02/22 05:09:04;;;;;;;3.08;1.20;;;;;;;-1.22;66.73;102060.44;4981245;28;20497;-71
2023/02/22 05:11:30;;;;;;;3.25;1.60;;;;;;;-1.23;66.29;102067.22;4983187;28;20566;-71
2023/02/22 05:13:59;;;;;;;4.32;2.20;;;;;;;-1.23;66.76;102064.66;4983674;28;20057;-71
2023/02/22 05:16:26;;;;;;;3.50;1.40;;;;;;;-1.23;66.30;102074.94;4980043;28;20413;-72
2023/02/22 05:18:53;;;;;;;4.13;1.77;;;;;;;-1.23;66.64;102072.38;4982489;28;20042;-71
2023/02/22 05:21:20;;;;;;;5.60;1.83;;;;;;;-1.23;67.06;102077.50;4976103;28;20046;-71
2023/02/22 05:23:47;;;;;;;3.67;1.60;;;;;;;-1.22;66.43;102075.84;4970663;28;20483;-71
2023/02/22 05:26:13;;;;;;;4.00;1.58;;;;;;;-1.22;66.75;102081.84;4974570;28;20058;-71
2023/02/22 05:28:40;;;;;;;3.70;1.42;;;;;;;-1.23;66.27;102077.50;4974591;28;20046;-71
2023/02/22 05:31:09;;;;;;;2.75;1.55;;;;;;;-1.22;66.40;102084.41;4976682;28;20050;-71
2023/02/22 05:33:35;;;;;;;4.22;1.45;;;;;;;-1.22;66.60;102086.97;4975476;28;20079;-71
2023/02/22 05:36:02;;;;;;;3.67;2.13;;;;;;;-1.23;66.29;102080.06;4972887;28;20039;-71
2023/02/22 05:38:29;;;;;;;4.63;1.63;;;;;;;-1.23;66.37;102084.31;4977631;28;20057;-70
2023/02/22 05:40:56;;;;;;;3.00;1.13;;;;;;;-1.23;66.91;102089.44;4981143;28;20419;-71
2023/02/22 05:43:23;;;;;;;3.40;1.88;;;;;;;-1.22;66.37;102091.22;4984649;28;20120;-71
2023/02/22 05:45:50;;;;;;;4.20;2.10;;;;;;;-1.23;66.25;102090.31;4976601;28;20046;-71
2023/02/22 05:48:18;;;;;;;3.92;1.73;;;;;;;-1.23;66.81;102087.75;4982997;28;20061;-71
2023/02/22 05:50:45;;;;;;;3.45;1.85;;;;;;;-1.25;66.67;102086.81;4984523;28;20046;-71
2023/02/22 05:53:12;;;;;;;3.75;1.88;;;;;;;-1.25;66.01;102089.38;4979125;28;20800;-70
2023/02/22 05:55:39;;;;;;;4.32;1.77;;;;;;;-1.25;66.68;102094.50;4980728;28;20049;-70
2023/02/22 05:58:05;;;;;;;3.72;1.65;;;;;;;-1.25;66.52;102091.94;4983570;28;20410;-71
2023/02/22 06:00:32;;;;;;;3.03;1.38;;;;;;;-1.26;66.84;102095.28;4979503;28;20046;-70
2023/02/22 06:03:02;;;;;;;4.80;1.80;;;;;;;-1.26;66.70;102096.97;4981218;28;20073;-71
2023/02/22 06:05:31;;;;;;;5.28;2.25;;;;;;;-1.25;66.10;102098.72;4946040;28;20050;-71
2023/02/22 06:07:58;;;;;;;3.13;1.75;;;;;;;-1.26;66.39;102105.53;4977082;28;20124;-72
2023/02/22 06:10:26;;;;;;;4.68;2.22;;;;;;;-1.26;66.43;102108.09;4976623;28;20491;-71
2023/02/22 06:12:53;;;;;;;3.58;1.80;;;;;;;-1.26;66.78;102107.22;4980843;28;20700;-71
2023/02/22 06:15:22;;;;;;;5.22;2.10;;;;;;;-1.27;66.47;102106.34;4979751;28;20053;-71
2023/02/22 06:17:49;;;;;;;5.35;2.13;;;;;;;-1.27;66.67;102108.91;4980986;28;20039;-76
2023/02/22 06:20:20;;;;;;;5.72;2.60;;;;;;;-1.28;66.64;102104.59;4982349;28;20053;-71
2023/02/22 06:22:49;;;;;;;5.07;2.13;;;;;;;-1.27;66.60;102108.91;4981863;28;20496;-72
2023/02/22 06:25:17;;;;;;;4.75;1.95;;;;;;;-1.28;66.81;102106.25;4978888;28;20042;-71
2023/02/22 06:27:44;;;;;;;5.50;2.47;;;;;;;-1.29;66.91;102099.38;4979378;28;20054;-71
2023/02/22 06:30:13;;;;;;;4.82;2.22;;;;;;;-1.28;66.99;102111.38;4978445;28;20114;-71
2023/02/22 06:32:40;;;;;;;4.53;2.45;;;;;;;-1.28;66.81;102111.38;4982830;28;20051;-71
2023/02/22 06:35:07;;;;;;;5.00;2.05;;;;;;;-1.30;66.85;102113.88;4982459;28;20046;-71
2023/02/22 06:37:34;;;;;;;4.32;2.03;;;;;;;-1.32;66.70;102120.59;4979819;28;20652;-71
2023/02/22 06:40:03;;;;;;;6.35;2.65;;;;;;;-1.29;66.69;102117.31;4980797;28;20482;-71
2023/02/22 06:42:30;;;;;;;5.85;2.70;;;;;;;-1.29;66.66;102119.88;4982627;28;20553;-71
2023/02/22 06:44:56;;;;;;;3.80;2.08;;;;;;;-1.29;66.98;102125.88;4979449;28;20053;-70
2023/02/22 06:47:23;;;;;;;2.67;1.77;;;;;;;-1.29;67.23;102125.88;4982811;28;20414;-70
2023/02/22 06:49:53;;;;;;;5.72;2.20;;;;;;;-1.28;66.42;102122.56;4982752;28;20051;-70
2023/02/22 06:52:20;;;;;;;5.00;2.17;;;;;;;-1.28;66.48;102121.63;4979768;28;20046;-72
2023/02/22 06:54:47;;;;;;;5.57;2.10;;;;;;;-1.30;66.35;102128.41;4977182;28;20053;-72
2023/02/22 06:57:16;;;;;;;8.98;7.72;;;;;;;-1.27;66.93;102128.56;4978440;28;20061;-72
2023/02/22 06:59:43;;;;;;;5.72;2.42;;;;;;;-1.28;66.58;102127.69;4978885;28;20050;-72
2023/02/22 07:02:10;;;;;;;4.80;2.72;;;;;;;-1.27;66.62;102138.81;4980951;28;20414;-72
2023/02/22 07:04:37;;;;;;;4.90;2.50;;;;;;;-1.29;67.23;102125.88;4982127;28;20057;-72
2023/02/22 07:07:04;;;;;;;5.88;2.22;;;;;;;-1.28;66.45;102132.81;4979443;28;20050;-72
2023/02/22 07:09:31;;;;;;;6.78;2.17;;;;;;;-1.27;67.06;102134.56;4977578;28;20782;-72
2023/02/22 07:11:58;;;;;;;4.63;2.30;;;;;;;-1.25;66.97;102132.03;4979772;28;20080;-72
2023/02/22 07:14:26;;;;;;;4.28;2.15;;;;;;;-1.25;66.95;102135.53;4976464;28;20048;-72
2023/02/22 07:16:53;;;;;;;5.95;3.15;;;;;;;-1.32;66.09;102120.59;4979961;28;20686;-72
2023/02/22 07:19:19;;;;;;;4.60;2.38;;;;;;;-1.28;67.02;102122.56;4980127;28;20057;-74
2023/02/22 07:21:47;;;;;;;3.58;2.10;;;;;;;-1.23;66.54;102126.19;4979800;28;20122;-72
2023/02/22 07:24:14;;;;;;;4.28;2.33;;;;;;;-1.23;66.34;102131.34;4977082;28;20051;-72
2023/02/22 07:26:42;;;;;;;3.50;1.77;;;;;;;-1.22;66.28;102130.53;4978914;28;20517;-72
2023/02/22 07:29:10;;;;;;;4.40;1.98;;;;;;;-1.20;66.21;102136.63;4980669;28;20598;-72
2023/02/22 07:31:39;;;;;;;5.82;2.20;;;;;;;-1.20;66.79;102128.91;4979804;28;20050;-72
2023/02/22 07:34:06;;;;;;;4.28;2.17;;;;;;;-1.25;66.28;102127.84;4982728;28;20050;-72
2023/02/22 07:36:33;;;;;;;5.07;2.15;;;;;;;-1.19;66.61;102138.41;4982059;28;20478;-72
2023/02/22 07:38:59;;;;;;;7.68;2.53;;;;;;;-1.17;66.52;102141.94;4977346;28;20046;-72
2023/02/22 07:41:26;;;;;;;6.28;2.38;;;;;;;-1.15;66.22;102150.56;4976020;28;20545;-72
2023/02/22 07:43:53;;;;;;;4.28;2.13;;;;;;;-1.14;65.97;102151.44;4976165;28;20083;-72
2023/02/22 07:46:20;;;;;;;3.95;2.10;;;;;;;-1.15;66.12;102154.81;4979664;28;20043;-73
2023/02/22 07:48:48;;;;;;;6.15;2.40;;;;;;;-1.11;66.31;102160.97;4985238;28;20067;-72
2023/02/22 07:51:16;;;;;;;6.35;1.98;;;;;;;-1.15;66.49;102152.25;4984849;28;20051;-72
2023/02/22 07:53:43;;;;;;;4.30;1.98;;;;;;;-1.08;66.42;102164.59;4984005;28;20047;-72
2023/02/22 07:56:09;;;;;;;4.40;1.83;;;;;;;-1.16;66.16;102146.25;4983707;28;20046;-72
2023/02/22 07:58:36;;;;;;;3.20;2.15;;;;;;;-1.05;66.24;102162.19;4981047;28;20038;-73
2023/02/22 08:01:04;;;;;;;5.97;2.17;;;;;;;-1.04;65.83;102169.06;4977120;28;20495;-72
2023/02/22 08:03:35;;;;;;;4.43;2.00;;;;;;;-1.01;65.79;102163.22;4984162;28;20046;-73
2023/02/22 08:06:05;;;;;;;5.32;2.15;;;;;;;-0.98;66.11;102171.06;4982107;28;20050;-73
2023/02/22 08:08:33;;;;;;;6.28;2.38;;;;;;;-0.96;66.51;102172.03;4983980;28;20039;-74
2023/02/22 08:11:00;;;;;;;3.75;1.90;;;;;;;-0.94;66.33;102181.56;4983507;28;20767;-72
2023/02/22 08:13:27;;;;;;;4.22;1.95;;;;;;;-1.00;66.01;102168.41;4984609;28;20058;-73
2023/02/22 08:15:54;;;;;;;6.68;2.05;;;;;;;-0.98;66.13;102165.94;4987026;28;20390;-73
2023/02/22 08:18:23;;;;;;;5.72;1.90;;;;;;;-0.86;65.81;102186.19;4983124;28;20042;-72
2023/02/22 08:20:51;;;;;;;5.38;1.98;;;;;;;-0.84;65.87;102187.16;4984092;28;20051;-72
2023/02/22 08:23:22;;;;;;;3.60;1.90;;;;;;;-0.82;66.03;102189.00;4983345;28;20949;-73
2023/02/22 08:25:49;;;;;;;6.50;2.38;;;;;;;-0.77;65.50;102191.78;4984436;28;20050;-73
2023/02/22 08:28:18;;;;;;;3.63;1.85;;;;;;;-0.76;65.39;102181.59;4981823;28;20057;-73
2023/02/22 08:30:45;;;;;;;4.78;2.13;;;;;;;-0.74;65.58;102173.97;4982355;28;20046;-76
2023/02/22 08:33:17;;;;;;;4.95;2.05;;;;;;;-0.66;65.57;102190.63;4982697;28;20509;-72
2023/02/22 08:35:47;;;;;;;5.45;2.08;;;;;;;-0.61;65.68;102184.03;4982376;28;20042;-72
2023/02/22 08:38:18;;;;;;;5.32;2.15;;;;;;;-0.59;66.06;102186.69;4980640;28;20426;-73
2023/02/22 08:40:48;;;;;;;4.28;1.83;;;;;;;-0.55;65.40;102192.03;4982030;28;20043;-71
2023/02/22 08:43:15;;;;;;;6.07;2.28;;;;;;;-0.52;66.01;102188.75;4986119;28;20062;-71
2023/02/22 08:45:43;;;;;;;7.35;2.13;;;;;;;-0.49;64.85;102196.59;4984621;28;20042;-71
2023/02/22 08:48:09;;;;;;;4.68;2.30;;;;;;;-0.45;64.79;102198.53;4984046;28;20113;-71
2023/02/22 08:50:37;;;;;;;4.38;2.22;;;;;;;-0.43;64.96;102196.91;4984217;28;20049;-72
2023/02/22 08:53:05;;;;;;;6.65;2.15;;;;;;;-0.37;64.38;102194.66;4982857;28;20054;-71
2023/02/22 08:55:34;;;;;;;6.25;2.92;;;;;;;-0.32;64.21;102205.13;4984780;28;20050;-71
2023/02/22 08:58:03;;;;;;;3.45;2.10;;;;;;;-0.48;64.24;102163.31;4982099;28;20053;-72
2023/02/22 09:00:32;;;;;;;6.13;1.70;;;;;;;-0.25;64.48;102199.50;4983430;28;20038;-73
2023/02/22 09:03:00;;;;;;;4.88;2.40;;;;;;;-0.20;64.13;102192.00;4983572;28;20054;-73
2023/02/22 09:05:27;;;;;;;5.10;2.45;;;;;;;-0.17;64.38;102195.63;4985234;28;20049;-70
2023/02/22 09:07:54;;;;;;;3.20;1.75;;;;;;;-0.13;64.88;102194.06;4985991;28;20042;-71
2023/02/22 09:10:24;;;;;;;4.05;1.73;;;;;;;-0.10;63.82;102201.91;4985847;28;20046;-70
2023/02/22 09:12:51;;;;;;;4.13;1.73;;;;;;;-0.11;64.66;102197.59;4979642;28;20054;-71
2023/02/22 09:15:19;;;;;;;4.80;2.03;;;;;;;-0.07;63.77;102202.06;4982444;28;20409;-70
2023/02/22 09:17:46;;;;;;;8.95;2.97;;;;;;;-0.06;64.05;102199.59;4984897;28;20050;-71
2023/02/22 09:20:13;;;;;;;2.20;1.65;;;;;;;-0.06;64.54;102196.09;4982195;28;20503;-70
2023/02/22 09:22:40;;;;;;;3.42;1.77;;;;;;;-0.05;64.01;102201.34;4982983;28;20058;-70
2023/02/22 09:25:08;;;;;;;3.22;1.52;;;;;;;-0.06;63.83;102196.09;4984241;28;20054;-71
2023/02/22 09:27:35;;;;;;;4.30;1.85;;;;;;;-0.02;64.34;102201.47;4982908;28;20537;-70
2023/02/22 09:30:02;;;;;;;3.70;1.77;;;;;;;0.01;64.04;102202.44;4982644;28;20057;-72
2023/02/22 09:32:30;;;;;;;3.38;1.80;;;;;;;0.02;63.67;102202.50;4982155;28;20062;-71
2023/02/22 09:34:57;;;;;;;4.40;2.13;;;;;;;0.04;64.21;102203.47;4980736;28;20541;-71
2023/02/22 09:37:24;;;;;;;3.40;1.77;;;;;;;0.04;63.33;102205.16;4982979;28;20487;-70
2023/02/22 09:39:51;;;;;;;4.20;1.95;;;;;;;0.04;63.27;102211.16;4985859;28;20363;-70
2023/02/22 09:42:30;;;;;;;4.25;1.88;;;;;;;0.05;63.31;102207.78;4980765;28;20058;-69
2023/02/22 09:45:04;;;;;;;4.60;2.00;;;;;;;0.06;63.50;102214.69;4982467;28;20542;-69
2023/02/22 09:47:40;;;;;;;4.60;1.92;;;;;;;0.07;62.95;102213.88;4983922;28;20074;-69
2023/02/22 09:50:14;;;;;;;3.22;1.48;;;;;;;0.08;63.69;102218.19;4986896;28;20055;-69
2023/02/22 09:52:53;;;;;;;3.78;1.98;;;;;;;0.11;63.57;102223.47;4981237;28;20062;-70
2023/02/22 09:55:29;;;;;;;3.65;1.42;;;;;;;0.13;63.33;102221.88;4978576;28;20046;-67
2023/02/22 09:58:00;;;;;;;3.80;1.55;;;;;;;0.15;62.96;102219.38;4986855;28;20054;-67
2023/02/22 10:00:32;;;;;;;2.92;1.70;;;;;;;0.20;62.94;102231.66;4978863;28;20433;-69
2023/02/22 10:03:17;;;;;;;3.05;1.45;;;;;;;0.24;62.80;102222.38;4977286;28;20141;-67
2023/02/22 10:05:51;;;;;;;5.18;1.92;;;;;;;0.26;62.46;102223.34;4977469;28;20046;-67
2023/02/22 10:08:20;;;;;;;6.63;1.73;;;;;;;0.29;62.19;102222.59;4980582;28;20043;-67
2023/02/22 10:10:51;;;;;;;3.67;1.83;;;;;;;0.32;62.32;102225.31;4980802;28;20058;-68
2023/02/22 10:13:28;;;;;;;5.07;1.80;;;;;;;0.33;61.52;102219.34;4982779;28;20080;-67
2023/02/22 10:16:02;;;;;;;2.95;1.65;;;;;;;0.34;62.40;102221.09;4981241;28;20043;-68
2023/02/22 10:18:53;;;;;;;7.10;1.95;;;;;;;0.38;62.40;102217.88;4980090;28;20042;-67
2023/02/22 10:21:41;;;;;;;1.95;0.95;;;;;;;0.41;62.74;102218.03;4981875;28;20051;-67
2023/02/22 10:24:23;;;;;;;3.97;1.33;;;;;;;0.45;62.13;102217.34;4979006;28;20051;-68
2023/02/22 10:26:52;;;;;;;2.67;1.58;;;;;;;0.47;61.52;102220.00;4977173;28;20105;-68
2023/02/22 10:29:27;;;;;;;3.00;1.75;;;;;;;0.48;62.16;102220.06;4977427;28;20125;-68
2023/02/22 10:31:58;;;;;;;4.10;1.80;;;;;;;0.53;61.49;102217.69;4981967;28;20421;-68
2023/02/22 10:34:29;;;;;;;4.10;1.40;;;;;;;0.54;61.86;102215.22;4979479;28;20047;-68
2023/02/22 10:37:00;;;;;;;4.75;1.60;;;;;;;0.58;61.94;102221.38;4982148;28;20054;-68
2023/02/22 10:39:31;;;;;;;5.22;1.85;;;;;;;0.60;61.23;102215.50;4981023;28;20514;-68
2023/02/22 10:42:04;;;;;;;2.25;1.10;;;;;;;0.63;60.91;102214.75;4983082;28;20074;-69
2023/02/22 10:44:32;;;;;;;3.45;1.70;;;;;;;0.65;61.08;102213.09;4982544;28;20050;-69
2023/02/22 10:47:01;;;;;;;4.25;1.83;;;;;;;0.67;61.68;102214.94;4981412;28;20043;-69
2023/02/22 10:49:34;;;;;;;2.38;1.55;;;;;;;0.60;61.64;102205.19;4979860;28;20088;-69
2023/02/22 10:52:03;;;;;;;2.72;1.40;;;;;;;0.69;62.31;102225.31;4981886;28;20153;-69
2023/02/22 10:54:33;;;;;;;3.63;1.55;;;;;;;0.64;62.14;102211.34;4985434;28;20054;-69
2023/02/22 10:57:02;;;;;;;3.60;1.30;;;;;;;0.70;61.76;102227.06;4981893;28;20054;-70
2023/02/22 10:59:33;;;;;;;2.90;1.60;;;;;;;0.73;61.78;102227.19;4979819;28;20057;-70
2023/02/22 11:02:01;;;;;;;3.45;1.40;;;;;;;0.69;61.79;102212.44;4980554;28;20074;-69
2023/02/22 11:04:45;;;;;;;4.75;2.40;;;;;;;0.76;62.18;102229.91;4980790;28;20379;-69
2023/02/22 11:07:20;;;;;;;5.30;1.67;;;;;;;0.77;61.34;102238.50;4981009;28;20061;-70
2023/02/22 11:09:50;;;;;;;3.17;1.30;;;;;;;0.75;61.66;102230.72;4980503;28;20133;-69
2023/02/22 11:12:21;;;;;;;5.93;2.80;;;;;;;0.77;61.34;102233.34;4982378;28;20612;-69
2023/02/22 11:14:48;;;;;;;3.67;1.70;;;;;;;0.77;61.60;102230.78;4979309;28;20117;-70
2023/02/22 11:17:22;;;;;;;3.42;2.10;;;;;;;0.78;61.40;102232.56;4983556;28;20091;-69
2023/02/22 11:19:51;;;;;;;4.30;2.00;;;;;;;0.80;61.50;102234.38;4978008;28;20097;-69
2023/02/22 11:22:25;;;;;;;2.92;1.38;;;;;;;0.78;61.49;102236.00;4981758;28;20490;-70
2023/02/22 11:24:54;;;;;;;3.28;1.50;;;;;;;0.81;61.37;102233.56;4978574;28;20061;-69
2023/02/22 11:27:30;;;;;;;2.50;1.48;;;;;;;0.83;61.44;102234.53;4979842;28;20049;-70
2023/02/22 11:30:06;;;;;;;;;;;;;;;0.83;61.85;102239.66;4982135;28;20482;-69
2023/02/22 11:32:35;;;;;;;5.80;1.85;;;;;;;0.83;61.25;102243.94;4978349;28;19933;-72
2023/02/22 11:35:34;;;;;;;2.90;1.40;;;;;;;0.83;61.66;102241.38;4982413;28;20097;-71
2023/02/22 11:38:19;;;;;;;4.03;1.38;;;;;;;0.83;61.89;102236.22;4982210;28;20129;-72
2023/02/22 11:40:48;;;;;;;2.72;1.48;;;;;;;0.83;61.29;102233.66;4980681;28;20333;-71